sensor_id;sensor_type;location;lat;lon;timestamp;P1;durP1;ratioP1;P2;durP2;ratioP2
40501;SDS011;29631;49.168;9.848;2022-12-18T00:01:16;21.13;;;17.05;;
40501;SDS011;29631;49.168;9.848;2022-12-18T00:03:48;21.38;;;15.82;;
40501;SDS011;29631;49.168;9.848;2022-12-18T00:06:15;20.50;;;17.17;;
40501;SDS011;29631;49.168;9.848;2022-12-18T00:08:42;24.15;;;17.20;;
40501;SDS011;29631;49.168;9.848;2022-12-18T00:11:10;20.90;;;17.25;;
40501;SDS011;29631;49.168;9.848;2022-12-18T00:13:42;21.10;;;17.00;;
40501;SDS011;29631;49.168;9.848;2022-12-18T00:16:10;23.57;;;17.80;;
40501;SDS011;29631;49.168;9.848;2022-12-18T00:18:39;21.83;;;16.50;;
40501;SDS011;29631;49.168;9.848;2022-12-18T00:21:06;23.50;;;17.80;;
40501;SDS011;29631;49.168;9.848;2022-12-18T00:23:35;24.02;;;17.77;;
40501;SDS011;29631;49.168;9.848;2022-12-18T00:26:03;22.98;;;17.42;;
40501;SDS011;29631;49.168;9.848;2022-12-18T00:28:35;22.27;;;17.40;;
40501;SDS011;29631;49.168;9.848;2022-12-18T00:31:01;24.08;;;17.05;;
40501;SDS011;29631;49.168;9.848;2022-12-18T00:33:36;20.90;;;16.15;;
40501;SDS011;29631;49.168;9.848;2022-12-18T00:36:02;22.25;;;16.05;;
40501;SDS011;29631;49.168;9.848;2022-12-18T00:38:30;20.80;;;16.52;;
40501;SDS011;29631;49.168;9.848;2022-12-18T00:40:56;20.92;;;16.98;;
40501;SDS011;29631;49.168;9.848;2022-12-18T00:43:22;22.05;;;16.92;;
40501;SDS011;29631;49.168;9.848;2022-12-18T00:45:48;21.45;;;16.63;;
40501;SDS011;29631;49.168;9.848;2022-12-18T00:48:13;21.43;;;16.77;;
40501;SDS011;29631;49.168;9.848;2022-12-18T00:50:39;20.23;;;16.40;;
40501;SDS011;29631;49.168;9.848;2022-12-18T00:53:05;21.20;;;16.53;;
40501;SDS011;29631;49.168;9.848;2022-12-18T00:55:31;23.30;;;18.02;;
40501;SDS011;29631;49.168;9.848;2022-12-18T00:57:57;22.02;;;16.35;;
40501;SDS011;29631;49.168;9.848;2022-12-18T01:00:22;23.20;;;17.35;;
40501;SDS011;29631;49.168;9.848;2022-12-18T01:02:48;21.40;;;16.42;;
40501;SDS011;29631;49.168;9.848;2022-12-18T01:05:14;22.88;;;17.70;;
40501;SDS011;29631;49.168;9.848;2022-12-18T01:07:40;22.95;;;17.92;;
40501;SDS011;29631;49.168;9.848;2022-12-18T01:10:07;24.60;;;17.98;;
40501;SDS011;29631;49.168;9.848;2022-12-18T01:12:36;23.27;;;17.97;;
40501;SDS011;29631;49.168;9.848;2022-12-18T01:15:02;23.38;;;18.20;;
40501;SDS011;29631;49.168;9.848;2022-12-18T01:17:29;22.98;;;17.63;;
40501;SDS011;29631;49.168;9.848;2022-12-18T01:19:54;25.67;;;17.67;;
40501;SDS011;29631;49.168;9.848;2022-12-18T01:22:20;24.27;;;17.38;;
40501;SDS011;29631;49.168;9.848;2022-12-18T01:24:46;24.98;;;18.08;;
40501;SDS011;29631;49.168;9.848;2022-12-18T01:27:12;26.75;;;18.80;;
40501;SDS011;29631;49.168;9.848;2022-12-18T01:29:37;25.98;;;18.67;;
40501;SDS011;29631;49.168;9.848;2022-12-18T01:32:03;26.05;;;18.83;;
40501;SDS011;29631;49.168;9.848;2022-12-18T01:34:29;22.50;;;17.13;;
40501;SDS011;29631;49.168;9.848;2022-12-18T01:36:55;25.58;;;18.23;;
40501;SDS011;29631;49.168;9.848;2022-12-18T01:39:21;25.85;;;17.73;;
40501;SDS011;29631;49.168;9.848;2022-12-18T01:41:48;24.77;;;18.48;;
40501;SDS011;29631;49.168;9.848;2022-12-18T01:50:15;20.47;;;16.77;;
40501;SDS011;29631;49.168;9.848;2022-12-18T01:53:17;22.17;;;16.23;;
40501;SDS011;29631;49.168;9.848;2022-12-18T01:58:19;23.97;;;16.67;;
40501;SDS011;29631;49.168;9.848;2022-12-18T02:00:54;20.73;;;16.40;;
40501;SDS011;29631;49.168;9.848;2022-12-18T02:03:21;20.70;;;16.50;;
40501;SDS011;29631;49.168;9.848;2022-12-18T02:08:21;22.77;;;15.88;;
40501;SDS011;29631;49.168;9.848;2022-12-18T02:11:05;20.17;;;15.45;;
40501;SDS011;29631;49.168;9.848;2022-12-18T02:16:58;20.40;;;14.90;;
40501;SDS011;29631;49.168;9.848;2022-12-18T02:22:55;22.95;;;15.90;;
40501;SDS011;29631;49.168;9.848;2022-12-18T02:28:53;20.30;;;15.10;;
40501;SDS011;29631;49.168;9.848;2022-12-18T02:31:36;20.45;;;14.88;;
40501;SDS011;29631;49.168;9.848;2022-12-18T02:34:08;19.73;;;14.70;;
40501;SDS011;29631;49.168;9.848;2022-12-18T02:36:36;21.95;;;15.15;;
40501;SDS011;29631;49.168;9.848;2022-12-18T02:39:05;20.70;;;15.20;;
40501;SDS011;29631;49.168;9.848;2022-12-18T02:41:36;21.25;;;15.95;;
40501;SDS011;29631;49.168;9.848;2022-12-18T02:44:07;21.33;;;15.55;;
40501;SDS011;29631;49.168;9.848;2022-12-18T02:46:41;21.17;;;15.45;;
40501;SDS011;29631;49.168;9.848;2022-12-18T02:57:16;19.48;;;14.68;;
40501;SDS011;29631;49.168;9.848;2022-12-18T03:02:45;19.48;;;14.63;;
40501;SDS011;29631;49.168;9.848;2022-12-18T03:05:17;18.38;;;14.10;;
40501;SDS011;29631;49.168;9.848;2022-12-18T03:07:57;17.55;;;13.95;;
40501;SDS011;29631;49.168;9.848;2022-12-18T03:10:54;17.15;;;13.43;;
40501;SDS011;29631;49.168;9.848;2022-12-18T03:16:09;18.58;;;14.52;;
40501;SDS011;29631;49.168;9.848;2022-12-18T03:18:45;18.95;;;14.63;;
40501;SDS011;29631;49.168;9.848;2022-12-18T03:21:20;19.80;;;14.57;;
40501;SDS011;29631;49.168;9.848;2022-12-18T03:23:50;18.37;;;15.20;;
40501;SDS011;29631;49.168;9.848;2022-12-18T03:26:18;20.53;;;14.90;;
40501;SDS011;29631;49.168;9.848;2022-12-18T03:28:52;19.88;;;14.90;;
40501;SDS011;29631;49.168;9.848;2022-12-18T03:31:24;19.02;;;14.55;;
40501;SDS011;29631;49.168;9.848;2022-12-18T03:33:57;19.00;;;14.00;;
40501;SDS011;29631;49.168;9.848;2022-12-18T03:36:26;17.50;;;13.67;;
40501;SDS011;29631;49.168;9.848;2022-12-18T03:38:52;18.80;;;13.50;;
40501;SDS011;29631;49.168;9.848;2022-12-18T03:44:08;18.38;;;13.93;;
40501;SDS011;29631;49.168;9.848;2022-12-18T03:46:54;18.73;;;13.73;;
40501;SDS011;29631;49.168;9.848;2022-12-18T03:52:24;16.77;;;13.60;;
40501;SDS011;29631;49.168;9.848;2022-12-18T03:55:07;16.95;;;12.63;;
40501;SDS011;29631;49.168;9.848;2022-12-18T03:57:34;17.97;;;12.93;;
40501;SDS011;29631;49.168;9.848;2022-12-18T04:00:04;15.98;;;12.38;;
40501;SDS011;29631;49.168;9.848;2022-12-18T04:02:37;19.40;;;13.10;;
40501;SDS011;29631;49.168;9.848;2022-12-18T04:05:09;17.20;;;13.65;;
40501;SDS011;29631;49.168;9.848;2022-12-18T04:07:37;17.33;;;13.60;;
40501;SDS011;29631;49.168;9.848;2022-12-18T04:10:05;16.57;;;12.83;;
40501;SDS011;29631;49.168;9.848;2022-12-18T04:12:34;17.50;;;13.33;;
40501;SDS011;29631;49.168;9.848;2022-12-18T04:15:02;18.40;;;13.97;;
40501;SDS011;29631;49.168;9.848;2022-12-18T04:17:28;18.03;;;13.47;;
40501;SDS011;29631;49.168;9.848;2022-12-18T04:19:54;16.63;;;13.17;;
40501;SDS011;29631;49.168;9.848;2022-12-18T04:22:19;18.73;;;13.50;;
40501;SDS011;29631;49.168;9.848;2022-12-18T04:24:45;18.23;;;13.97;;
40501;SDS011;29631;49.168;9.848;2022-12-18T04:27:11;15.63;;;12.25;;
40501;SDS011;29631;49.168;9.848;2022-12-18T04:29:37;16.93;;;12.63;;
40501;SDS011;29631;49.168;9.848;2022-12-18T04:32:03;16.83;;;13.80;;
40501;SDS011;29631;49.168;9.848;2022-12-18T04:34:29;17.50;;;13.60;;
40501;SDS011;29631;49.168;9.848;2022-12-18T04:36:55;17.33;;;13.18;;
40501;SDS011;29631;49.168;9.848;2022-12-18T04:39:21;17.17;;;13.15;;
40501;SDS011;29631;49.168;9.848;2022-12-18T04:41:47;15.70;;;12.40;;
40501;SDS011;29631;49.168;9.848;2022-12-18T04:44:13;17.63;;;13.57;;
40501;SDS011;29631;49.168;9.848;2022-12-18T04:46:38;15.50;;;12.53;;
40501;SDS011;29631;49.168;9.848;2022-12-18T04:49:04;17.92;;;13.30;;
40501;SDS011;29631;49.168;9.848;2022-12-18T04:51:30;17.70;;;13.23;;
40501;SDS011;29631;49.168;9.848;2022-12-18T04:53:56;16.67;;;12.43;;
40501;SDS011;29631;49.168;9.848;2022-12-18T04:56:21;17.38;;;12.25;;
40501;SDS011;29631;49.168;9.848;2022-12-18T04:58:47;17.07;;;12.80;;
40501;SDS011;29631;49.168;9.848;2022-12-18T05:01:15;17.37;;;12.70;;
40501;SDS011;29631;49.168;9.848;2022-12-18T05:03:42;18.37;;;12.93;;
40501;SDS011;29631;49.168;9.848;2022-12-18T05:06:08;16.87;;;12.17;;
40501;SDS011;29631;49.168;9.848;2022-12-18T05:08:34;18.13;;;12.97;;
40501;SDS011;29631;49.168;9.848;2022-12-18T05:11:04;18.93;;;12.87;;
40501;SDS011;29631;49.168;9.848;2022-12-18T05:13:36;16.63;;;12.30;;
40501;SDS011;29631;49.168;9.848;2022-12-18T05:16:03;18.30;;;12.40;;
40501;SDS011;29631;49.168;9.848;2022-12-18T05:18:30;17.35;;;12.70;;
40501;SDS011;29631;49.168;9.848;2022-12-18T05:20:56;20.47;;;13.57;;
40501;SDS011;29631;49.168;9.848;2022-12-18T05:23:22;20.07;;;12.97;;
40501;SDS011;29631;49.168;9.848;2022-12-18T05:28:24;21.10;;;13.40;;
40501;SDS011;29631;49.168;9.848;2022-12-18T05:30:54;18.77;;;13.10;;
40501;SDS011;29631;49.168;9.848;2022-12-18T05:33:23;19.03;;;13.17;;
40501;SDS011;29631;49.168;9.848;2022-12-18T05:35:52;18.40;;;12.53;;
40501;SDS011;29631;49.168;9.848;2022-12-18T05:38:27;17.93;;;12.77;;
40501;SDS011;29631;49.168;9.848;2022-12-18T05:40:54;17.10;;;12.53;;
40501;SDS011;29631;49.168;9.848;2022-12-18T05:43:21;18.77;;;13.13;;
40501;SDS011;29631;49.168;9.848;2022-12-18T05:45:50;18.33;;;13.10;;
40501;SDS011;29631;49.168;9.848;2022-12-18T05:48:17;19.30;;;14.00;;
40501;SDS011;29631;49.168;9.848;2022-12-18T05:50:43;19.67;;;13.57;;
40501;SDS011;29631;49.168;9.848;2022-12-18T05:53:10;18.40;;;12.80;;
40501;SDS011;29631;49.168;9.848;2022-12-18T05:55:39;19.13;;;13.57;;
40501;SDS011;29631;49.168;9.848;2022-12-18T05:58:07;18.27;;;13.07;;
40501;SDS011;29631;49.168;9.848;2022-12-18T06:00:35;19.03;;;13.40;;
40501;SDS011;29631;49.168;9.848;2022-12-18T06:03:05;22.90;;;13.90;;
40501;SDS011;29631;49.168;9.848;2022-12-18T06:05:40;20.07;;;13.17;;
40501;SDS011;29631;49.168;9.848;2022-12-18T06:08:10;18.47;;;13.17;;
40501;SDS011;29631;49.168;9.848;2022-12-18T06:10:37;17.23;;;12.30;;
40501;SDS011;29631;49.168;9.848;2022-12-18T06:13:05;18.50;;;12.83;;
40501;SDS011;29631;49.168;9.848;2022-12-18T06:15:31;20.13;;;13.87;;
40501;SDS011;29631;49.168;9.848;2022-12-18T06:17:57;20.00;;;13.27;;
40501;SDS011;29631;49.168;9.848;2022-12-18T06:20:25;19.50;;;13.77;;
40501;SDS011;29631;49.168;9.848;2022-12-18T06:22:51;17.00;;;12.23;;
40501;SDS011;29631;49.168;9.848;2022-12-18T06:25:17;18.97;;;12.50;;
40501;SDS011;29631;49.168;9.848;2022-12-18T06:27:43;19.33;;;12.33;;
40501;SDS011;29631;49.168;9.848;2022-12-18T06:30:09;18.70;;;12.07;;
40501;SDS011;29631;49.168;9.848;2022-12-18T06:32:35;17.07;;;12.03;;
40501;SDS011;29631;49.168;9.848;2022-12-18T06:35:01;18.47;;;12.67;;
40501;SDS011;29631;49.168;9.848;2022-12-18T06:37:27;17.07;;;12.10;;
40501;SDS011;29631;49.168;9.848;2022-12-18T06:39:53;18.73;;;12.40;;
40501;SDS011;29631;49.168;9.848;2022-12-18T06:42:19;18.63;;;12.33;;
40501;SDS011;29631;49.168;9.848;2022-12-18T06:44:44;17.33;;;12.07;;
40501;SDS011;29631;49.168;9.848;2022-12-18T06:47:10;19.10;;;12.97;;
40501;SDS011;29631;49.168;9.848;2022-12-18T06:49:36;18.00;;;12.47;;
40501;SDS011;29631;49.168;9.848;2022-12-18T06:52:02;18.23;;;11.63;;
40501;SDS011;29631;49.168;9.848;2022-12-18T06:54:27;16.50;;;12.30;;
40501;SDS011;29631;49.168;9.848;2022-12-18T06:56:53;18.50;;;13.20;;
40501;SDS011;29631;49.168;9.848;2022-12-18T06:59:20;20.90;;;13.33;;
40501;SDS011;29631;49.168;9.848;2022-12-18T07:01:46;19.87;;;12.43;;
40501;SDS011;29631;49.168;9.848;2022-12-18T07:04:11;19.13;;;12.20;;
40501;SDS011;29631;49.168;9.848;2022-12-18T07:06:37;15.87;;;11.00;;
40501;SDS011;29631;49.168;9.848;2022-12-18T07:09:03;17.97;;;11.73;;
40501;SDS011;29631;49.168;9.848;2022-12-18T07:11:29;18.90;;;12.57;;
40501;SDS011;29631;49.168;9.848;2022-12-18T07:13:57;18.53;;;12.27;;
40501;SDS011;29631;49.168;9.848;2022-12-18T07:16:24;17.27;;;11.40;;
40501;SDS011;29631;49.168;9.848;2022-12-18T07:18:50;18.43;;;12.20;;
40501;SDS011;29631;49.168;9.848;2022-12-18T07:21:17;17.07;;;11.37;;
40501;SDS011;29631;49.168;9.848;2022-12-18T07:23:44;18.67;;;11.83;;
40501;SDS011;29631;49.168;9.848;2022-12-18T07:26:14;17.27;;;11.90;;
40501;SDS011;29631;49.168;9.848;2022-12-18T07:28:42;15.60;;;10.73;;
40501;SDS011;29631;49.168;9.848;2022-12-18T07:31:12;19.70;;;11.57;;
40501;SDS011;29631;49.168;9.848;2022-12-18T07:33:44;17.47;;;12.23;;
40501;SDS011;29631;49.168;9.848;2022-12-18T07:36:10;16.37;;;11.70;;
40501;SDS011;29631;49.168;9.848;2022-12-18T07:38:36;17.10;;;11.57;;
40501;SDS011;29631;49.168;9.848;2022-12-18T07:41:06;20.40;;;11.20;;
40501;SDS011;29631;49.168;9.848;2022-12-18T07:43:35;17.10;;;12.03;;
40501;SDS011;29631;49.168;9.848;2022-12-18T07:46:01;18.10;;;12.07;;
40501;SDS011;29631;49.168;9.848;2022-12-18T07:48:30;19.57;;;13.00;;
40501;SDS011;29631;49.168;9.848;2022-12-18T07:51:03;21.17;;;13.27;;
40501;SDS011;29631;49.168;9.848;2022-12-18T07:53:31;20.13;;;12.67;;
40501;SDS011;29631;49.168;9.848;2022-12-18T07:56:00;20.37;;;12.47;;
40501;SDS011;29631;49.168;9.848;2022-12-18T07:58:30;19.10;;;12.63;;
40501;SDS011;29631;49.168;9.848;2022-12-18T08:01:03;20.87;;;12.57;;
40501;SDS011;29631;49.168;9.848;2022-12-18T08:03:34;17.43;;;11.73;;
40501;SDS011;29631;49.168;9.848;2022-12-18T08:06:01;17.47;;;12.03;;
40501;SDS011;29631;49.168;9.848;2022-12-18T08:08:29;17.20;;;12.03;;
40501;SDS011;29631;49.168;9.848;2022-12-18T08:10:55;18.83;;;12.37;;
40501;SDS011;29631;49.168;9.848;2022-12-18T08:13:23;18.87;;;12.53;;
40501;SDS011;29631;49.168;9.848;2022-12-18T08:16:01;18.30;;;12.23;;
40501;SDS011;29631;49.168;9.848;2022-12-18T08:18:31;17.67;;;11.57;;
40501;SDS011;29631;49.168;9.848;2022-12-18T08:23:58;18.07;;;11.93;;
40501;SDS011;29631;49.168;9.848;2022-12-18T08:26:26;20.00;;;13.63;;
40501;SDS011;29631;49.168;9.848;2022-12-18T08:28:55;18.93;;;12.83;;
40501;SDS011;29631;49.168;9.848;2022-12-18T08:31:24;20.80;;;12.70;;
40501;SDS011;29631;49.168;9.848;2022-12-18T08:33:51;18.73;;;11.97;;
40501;SDS011;29631;49.168;9.848;2022-12-18T08:36:19;19.77;;;11.63;;
40501;SDS011;29631;49.168;9.848;2022-12-18T08:38:45;19.00;;;12.17;;
40501;SDS011;29631;49.168;9.848;2022-12-18T08:41:12;18.47;;;12.50;;
40501;SDS011;29631;49.168;9.848;2022-12-18T08:43:41;18.27;;;13.30;;
40501;SDS011;29631;49.168;9.848;2022-12-18T08:46:26;17.17;;;11.67;;
40501;SDS011;29631;49.168;9.848;2022-12-18T08:48:59;20.17;;;11.87;;
40501;SDS011;29631;49.168;9.848;2022-12-18T08:51:25;18.77;;;12.40;;
40501;SDS011;29631;49.168;9.848;2022-12-18T08:53:50;18.17;;;11.90;;
40501;SDS011;29631;49.168;9.848;2022-12-18T08:56:16;20.87;;;13.40;;
40501;SDS011;29631;49.168;9.848;2022-12-18T08:58:42;20.43;;;13.47;;
40501;SDS011;29631;49.168;9.848;2022-12-18T09:01:08;21.17;;;13.40;;
40501;SDS011;29631;49.168;9.848;2022-12-18T09:03:36;19.77;;;12.80;;
40501;SDS011;29631;49.168;9.848;2022-12-18T09:06:03;18.30;;;12.23;;
40501;SDS011;29631;49.168;9.848;2022-12-18T09:08:30;18.20;;;12.53;;
40501;SDS011;29631;49.168;9.848;2022-12-18T09:10:55;17.63;;;12.48;;
40501;SDS011;29631;49.168;9.848;2022-12-18T09:13:22;20.58;;;13.02;;
40501;SDS011;29631;49.168;9.848;2022-12-18T09:15:49;21.80;;;14.10;;
40501;SDS011;29631;49.168;9.848;2022-12-18T09:18:19;18.67;;;11.63;;
40501;SDS011;29631;49.168;9.848;2022-12-18T09:20:47;19.27;;;12.90;;
40501;SDS011;29631;49.168;9.848;2022-12-18T09:23:13;20.52;;;11.93;;
40501;SDS011;29631;49.168;9.848;2022-12-18T09:25:39;20.97;;;13.10;;
40501;SDS011;29631;49.168;9.848;2022-12-18T09:28:09;17.33;;;12.10;;
40501;SDS011;29631;49.168;9.848;2022-12-18T09:30:58;17.83;;;11.87;;
40501;SDS011;29631;49.168;9.848;2022-12-18T09:33:24;18.38;;;11.90;;
40501;SDS011;29631;49.168;9.848;2022-12-18T09:35:50;18.40;;;12.55;;
40501;SDS011;29631;49.168;9.848;2022-12-18T09:38:16;20.50;;;12.65;;
40501;SDS011;29631;49.168;9.848;2022-12-18T09:40:45;18.88;;;12.50;;
40501;SDS011;29631;49.168;9.848;2022-12-18T09:43:18;18.47;;;12.40;;
40501;SDS011;29631;49.168;9.848;2022-12-18T09:46:01;18.40;;;12.75;;
40501;SDS011;29631;49.168;9.848;2022-12-18T09:48:32;17.50;;;11.95;;
40501;SDS011;29631;49.168;9.848;2022-12-18T09:51:11;21.92;;;12.60;;
40501;SDS011;29631;49.168;9.848;2022-12-18T09:53:55;18.33;;;12.33;;
40501;SDS011;29631;49.168;9.848;2022-12-18T09:56:38;17.35;;;11.02;;
40501;SDS011;29631;49.168;9.848;2022-12-18T09:59:09;19.83;;;12.52;;
40501;SDS011;29631;49.168;9.848;2022-12-18T10:02:10;16.25;;;11.13;;
40501;SDS011;29631;49.168;9.848;2022-12-18T10:04:50;19.70;;;12.27;;
40501;SDS011;29631;49.168;9.848;2022-12-18T10:10:38;19.85;;;12.55;;
40501;SDS011;29631;49.168;9.848;2022-12-18T10:16:17;17.15;;;11.75;;
40501;SDS011;29631;49.168;9.848;2022-12-18T10:19:16;17.85;;;12.43;;
40501;SDS011;29631;49.168;9.848;2022-12-18T10:27:48;18.30;;;12.95;;
40501;SDS011;29631;49.168;9.848;2022-12-18T10:30:23;19.13;;;12.15;;
40501;SDS011;29631;49.168;9.848;2022-12-18T10:32:50;19.23;;;13.20;;
40501;SDS011;29631;49.168;9.848;2022-12-18T10:35:22;22.40;;;14.17;;
40501;SDS011;29631;49.168;9.848;2022-12-18T10:38:05;17.85;;;13.35;;
40501;SDS011;29631;49.168;9.848;2022-12-18T10:43:15;18.77;;;13.68;;
40501;SDS011;29631;49.168;9.848;2022-12-18T10:45:58;19.77;;;13.48;;
40501;SDS011;29631;49.168;9.848;2022-12-18T10:48:39;18.92;;;13.05;;
40501;SDS011;29631;49.168;9.848;2022-12-18T10:51:18;20.13;;;13.83;;
40501;SDS011;29631;49.168;9.848;2022-12-18T10:54:14;19.38;;;13.68;;
40501;SDS011;29631;49.168;9.848;2022-12-18T10:56:48;20.08;;;13.23;;
40501;SDS011;29631;49.168;9.848;2022-12-18T10:59:15;22.17;;;15.03;;
40501;SDS011;29631;49.168;9.848;2022-12-18T11:01:58;21.40;;;13.68;;
40501;SDS011;29631;49.168;9.848;2022-12-18T11:04:25;21.25;;;14.50;;
40501;SDS011;29631;49.168;9.848;2022-12-18T11:07:04;19.40;;;12.93;;
40501;SDS011;29631;49.168;9.848;2022-12-18T11:09:36;19.85;;;13.65;;
40501;SDS011;29631;49.168;9.848;2022-12-18T11:12:06;19.85;;;14.32;;
40501;SDS011;29631;49.168;9.848;2022-12-18T11:14:49;22.65;;;15.50;;
40501;SDS011;29631;49.168;9.848;2022-12-18T11:20:04;19.88;;;13.82;;
40501;SDS011;29631;49.168;9.848;2022-12-18T11:22:44;20.25;;;14.23;;
40501;SDS011;29631;49.168;9.848;2022-12-18T11:25:29;21.40;;;14.07;;
40501;SDS011;29631;49.168;9.848;2022-12-18T11:28:01;23.50;;;14.90;;
40501;SDS011;29631;49.168;9.848;2022-12-18T11:30:32;21.35;;;14.55;;
40501;SDS011;29631;49.168;9.848;2022-12-18T11:33:05;23.52;;;16.17;;
40501;SDS011;29631;49.168;9.848;2022-12-18T11:35:57;21.33;;;14.52;;
40501;SDS011;29631;49.168;9.848;2022-12-18T11:38:29;22.08;;;14.85;;
40501;SDS011;29631;49.168;9.848;2022-12-18T11:44:28;19.17;;;13.20;;
40501;SDS011;29631;49.168;9.848;2022-12-18T11:49:50;19.73;;;13.82;;
40501;SDS011;29631;49.168;9.848;2022-12-18T11:52:38;21.63;;;14.65;;
40501;SDS011;29631;49.168;9.848;2022-12-18T11:55:16;20.92;;;14.63;;
40501;SDS011;29631;49.168;9.848;2022-12-18T12:01:08;18.15;;;13.20;;
40501;SDS011;29631;49.168;9.848;2022-12-18T12:18:08;18.27;;;14.15;;
40501;SDS011;29631;49.168;9.848;2022-12-18T12:20:57;21.10;;;14.95;;
40501;SDS011;29631;49.168;9.848;2022-12-18T12:40:49;19.77;;;14.70;;
40501;SDS011;29631;49.168;9.848;2022-12-18T12:43:24;20.65;;;14.35;;
40501;SDS011;29631;49.168;9.848;2022-12-18T12:46:06;19.58;;;15.25;;
40501;SDS011;29631;49.168;9.848;2022-12-18T12:48:40;20.42;;;15.35;;
40501;SDS011;29631;49.168;9.848;2022-12-18T12:53:53;21.45;;;14.98;;
40501;SDS011;29631;49.168;9.848;2022-12-18T12:56:21;20.73;;;15.02;;
40501;SDS011;29631;49.168;9.848;2022-12-18T12:59:04;20.20;;;14.80;;
40501;SDS011;29631;49.168;9.848;2022-12-18T13:01:49;17.15;;;13.73;;
40501;SDS011;29631;49.168;9.848;2022-12-18T13:07:09;20.27;;;14.88;;
40501;SDS011;29631;49.168;9.848;2022-12-18T13:12:54;19.20;;;13.80;;
40501;SDS011;29631;49.168;9.848;2022-12-18T13:15:41;17.55;;;14.15;;
40501;SDS011;29631;49.168;9.848;2022-12-18T13:20:35;17.98;;;13.05;;
40501;SDS011;29631;49.168;9.848;2022-12-18T13:23:47;19.98;;;14.90;;
40501;SDS011;29631;49.168;9.848;2022-12-18T13:25:47;20.30;;;14.77;;
40501;SDS011;29631;49.168;9.848;2022-12-18T13:34:23;17.98;;;13.80;;
40501;SDS011;29631;49.168;9.848;2022-12-18T13:36:54;19.55;;;15.35;;
40501;SDS011;29631;49.168;9.848;2022-12-18T13:39:41;19.77;;;14.80;;
40501;SDS011;29631;49.168;9.848;2022-12-18T13:44:33;20.08;;;14.85;;
40501;SDS011;29631;49.168;9.848;2022-12-18T13:47:01;18.23;;;14.48;;
40501;SDS011;29631;49.168;9.848;2022-12-18T13:49:39;19.77;;;15.40;;
40501;SDS011;29631;49.168;9.848;2022-12-18T13:52:19;20.38;;;14.85;;
40501;SDS011;29631;49.168;9.848;2022-12-18T13:54:53;19.42;;;14.73;;
40501;SDS011;29631;49.168;9.848;2022-12-18T13:57:28;19.48;;;14.32;;
40501;SDS011;29631;49.168;9.848;2022-12-18T13:59:57;20.38;;;15.20;;
40501;SDS011;29631;49.168;9.848;2022-12-18T14:02:37;18.50;;;13.95;;
40501;SDS011;29631;49.168;9.848;2022-12-18T14:05:03;18.98;;;14.57;;
40501;SDS011;29631;49.168;9.848;2022-12-18T14:07:29;21.98;;;15.65;;
40501;SDS011;29631;49.168;9.848;2022-12-18T14:09:57;20.92;;;14.73;;
40501;SDS011;29631;49.168;9.848;2022-12-18T14:12:34;20.33;;;15.02;;
40501;SDS011;29631;49.168;9.848;2022-12-18T14:17:52;19.60;;;15.55;;
40501;SDS011;29631;49.168;9.848;2022-12-18T14:20:41;19.70;;;14.43;;
40501;SDS011;29631;49.168;9.848;2022-12-18T14:26:24;17.98;;;13.20;;
40501;SDS011;29631;49.168;9.848;2022-12-18T14:28:54;19.25;;;13.93;;
40501;SDS011;29631;49.168;9.848;2022-12-18T14:31:27;18.33;;;13.85;;
40501;SDS011;29631;49.168;9.848;2022-12-18T14:33:55;17.60;;;13.38;;
40501;SDS011;29631;49.168;9.848;2022-12-18T14:36:24;20.48;;;15.32;;
40501;SDS011;29631;49.168;9.848;2022-12-18T14:38:55;18.15;;;14.35;;
40501;SDS011;29631;49.168;9.848;2022-12-18T14:41:23;18.13;;;14.30;;
40501;SDS011;29631;49.168;9.848;2022-12-18T14:43:51;20.27;;;15.57;;
40501;SDS011;29631;49.168;9.848;2022-12-18T14:46:34;18.55;;;13.95;;
40501;SDS011;29631;49.168;9.848;2022-12-18T14:49:03;19.35;;;14.35;;
40501;SDS011;29631;49.168;9.848;2022-12-18T14:51:47;17.88;;;14.02;;
40501;SDS011;29631;49.168;9.848;2022-12-18T14:54:19;20.13;;;14.30;;
40501;SDS011;29631;49.168;9.848;2022-12-18T14:56:48;20.13;;;14.07;;
40501;SDS011;29631;49.168;9.848;2022-12-18T14:59:24;19.30;;;14.50;;
40501;SDS011;29631;49.168;9.848;2022-12-18T15:07:50;18.45;;;13.82;;
40501;SDS011;29631;49.168;9.848;2022-12-18T15:10:25;17.67;;;14.07;;
40501;SDS011;29631;49.168;9.848;2022-12-18T15:20:41;17.85;;;13.73;;
40501;SDS011;29631;49.168;9.848;2022-12-18T15:23:19;16.83;;;13.35;;
40501;SDS011;29631;49.168;9.848;2022-12-18T15:26:04;17.38;;;13.48;;
40501;SDS011;29631;49.168;9.848;2022-12-18T15:28:43;16.35;;;13.05;;
40501;SDS011;29631;49.168;9.848;2022-12-18T15:31:28;17.13;;;13.60;;
40501;SDS011;29631;49.168;9.848;2022-12-18T15:36:23;18.90;;;14.35;;
40501;SDS011;29631;49.168;9.848;2022-12-18T15:38:53;20.38;;;15.32;;
40501;SDS011;29631;49.168;9.848;2022-12-18T15:41:21;21.02;;;14.85;;
40501;SDS011;29631;49.168;9.848;2022-12-18T15:43:48;18.65;;;14.43;;
40501;SDS011;29631;49.168;9.848;2022-12-18T15:46:16;20.17;;;14.55;;
40501;SDS011;29631;49.168;9.848;2022-12-18T15:48:46;19.67;;;13.90;;
40501;SDS011;29631;49.168;9.848;2022-12-18T15:51:16;18.77;;;13.82;;
40501;SDS011;29631;49.168;9.848;2022-12-18T15:53:48;18.90;;;14.25;;
40501;SDS011;29631;49.168;9.848;2022-12-18T15:56:19;16.98;;;13.70;;
40501;SDS011;29631;49.168;9.848;2022-12-18T15:59:07;20.60;;;14.38;;
40501;SDS011;29631;49.168;9.848;2022-12-18T16:01:39;20.90;;;14.40;;
40501;SDS011;29631;49.168;9.848;2022-12-18T16:04:06;19.65;;;14.05;;
40501;SDS011;29631;49.168;9.848;2022-12-18T16:06:34;20.02;;;15.52;;
40501;SDS011;29631;49.168;9.848;2022-12-18T16:08:59;18.80;;;14.40;;
40501;SDS011;29631;49.168;9.848;2022-12-18T16:11:29;20.50;;;14.85;;
40501;SDS011;29631;49.168;9.848;2022-12-18T16:16:53;17.42;;;13.85;;
40501;SDS011;29631;49.168;9.848;2022-12-18T16:19:21;21.35;;;14.90;;
40501;SDS011;29631;49.168;9.848;2022-12-18T16:21:49;17.80;;;13.57;;
40501;SDS011;29631;49.168;9.848;2022-12-18T16:24:18;19.42;;;14.50;;
40501;SDS011;29631;49.168;9.848;2022-12-18T16:26:52;17.42;;;13.82;;
40501;SDS011;29631;49.168;9.848;2022-12-18T16:29:19;20.52;;;14.50;;
40501;SDS011;29631;49.168;9.848;2022-12-18T16:31:49;17.35;;;13.57;;
40501;SDS011;29631;49.168;9.848;2022-12-18T16:34:20;18.55;;;13.85;;
40501;SDS011;29631;49.168;9.848;2022-12-18T16:36:53;17.65;;;13.55;;
40501;SDS011;29631;49.168;9.848;2022-12-18T16:39:21;18.45;;;13.82;;
40501;SDS011;29631;49.168;9.848;2022-12-18T16:41:47;18.30;;;13.63;;
40501;SDS011;29631;49.168;9.848;2022-12-18T16:44:13;18.50;;;14.00;;
40501;SDS011;29631;49.168;9.848;2022-12-18T16:46:39;17.50;;;14.07;;
40501;SDS011;29631;49.168;9.848;2022-12-18T16:49:08;18.95;;;14.00;;
40501;SDS011;29631;49.168;9.848;2022-12-18T16:51:35;17.27;;;13.48;;
40501;SDS011;29631;49.168;9.848;2022-12-18T16:54:01;17.98;;;13.90;;
40501;SDS011;29631;49.168;9.848;2022-12-18T16:56:27;19.17;;;13.32;;
40501;SDS011;29631;49.168;9.848;2022-12-18T16:58:53;18.27;;;13.20;;
40501;SDS011;29631;49.168;9.848;2022-12-18T17:01:21;19.45;;;14.95;;
40501;SDS011;29631;49.168;9.848;2022-12-18T17:03:55;19.67;;;14.05;;
40501;SDS011;29631;49.168;9.848;2022-12-18T17:06:26;18.90;;;14.13;;
40501;SDS011;29631;49.168;9.848;2022-12-18T17:08:57;17.73;;;13.43;;
40501;SDS011;29631;49.168;9.848;2022-12-18T17:11:28;19.13;;;13.70;;